Time;durP1;ratioP1;P1;durP2;ratioP2;P2;SDS_P1;SDS_P2;PMS_P1;PMS_P2;Temp;Humidity;BMP_temperature;BMP_pressure;BME280_temperature;BME280_humidity;BME280_pressure;Samples;Min_cycle;Max_cycle;Signal;HPM_P1;HPM_P2
2022/10/29 00:00:39;;;;;;;21.37;14.38;;;;;;;13.44;66.99;101285.76;1743125;80;21000;-64
2022/10/29 00:03:06;;;;;;;21.68;14.80;;;;;;;13.46;66.92;101285.16;1743976;80;21077;-64
2022/10/29 00:05:33;;;;;;;19.05;15.15;;;;;;;13.45;66.98;101279.52;1738017;80;21013;-64
2022/10/29 00:08:01;;;;;;;18.17;14.87;;;;;;;13.45;67.05;101284.81;1742241;80;21584;-63
2022/10/29 00:10:27;;;;;;;19.67;16.00;;;;;;;13.42;67.06;101288.18;1754648;81;21505;-64
2022/10/29 00:12:54;;;;;;;20.02;14.80;;;;;;;13.38;67.10;101287.55;1762855;80;21576;-64
2022/10/29 00:15:21;;;;;;;17.05;14.23;;;;;;;13.36;67.10;101282.86;1756265;80;21078;-64
2022/10/29 00:17:47;;;;;;;19.85;15.60;;;;;;;13.40;67.11;101282.14;1773464;80;21129;-64
2022/10/29 00:20:14;;;;;;;19.32;15.08;;;;;;;13.40;67.15;101271.11;1746151;80;21341;-63
2022/10/29 00:22:41;;;;;;;21.00;14.65;;;;;;;13.39;67.19;101278.67;1763456;80;21023;-64
2022/10/29 00:25:09;;;;;;;21.85;14.65;;;;;;;13.37;67.22;101271.34;1752105;80;21087;-64
2022/10/29 00:27:35;;;;;;;20.25;14.63;;;;;;;13.32;67.28;101273.02;1743678;80;21053;-64
2022/10/29 00:30:02;;;;;;;17.55;13.20;;;;;;;13.29;67.34;101272.38;1768383;80;21483;-63
2022/10/29 00:32:28;;;;;;;19.55;13.72;;;;;;;13.24;67.41;101257.36;1773390;80;21142;-64
2022/10/29 00:34:55;;;;;;;18.07;13.58;;;;;;;13.26;67.31;101254.11;1748989;80;21059;-64
2022/10/29 00:37:21;;;;;;;18.07;13.03;;;;;;;13.27;67.34;101249.20;1742794;82;21129;-64
2022/10/29 00:39:48;;;;;;;18.92;13.90;;;;;;;13.19;67.50;101245.82;1744343;80;21035;-63
2022/10/29 00:42:15;;;;;;;18.05;13.70;;;;;;;13.15;67.59;101243.06;1742910;82;21046;-63
2022/10/29 00:44:42;;;;;;;18.98;14.05;;;;;;;13.11;67.66;101241.14;1747640;80;21134;-63
2022/10/29 00:47:33;;;;;;;19.30;13.58;;;;;;;13.01;67.76;101238.36;1745358;80;21046;-64
2022/10/29 00:50:07;;;;;;;19.23;12.45;;;;;;;12.96;67.88;101232.59;1743583;80;21035;-64
2022/10/29 00:52:35;;;;;;;16.23;12.88;;;;;;;12.95;67.95;101230.06;1766635;80;21062;-63
2022/10/29 00:55:04;;;;;;;19.17;12.95;;;;;;;12.92;68.00;101221.88;1730785;80;21070;-63
2022/10/29 00:57:36;;;;;;;18.92;14.18;;;;;;;12.91;68.06;101223.31;1738361;80;21278;-63
2022/10/29 01:00:03;;;;;;;18.40;13.40;;;;;;;12.86;68.17;101221.05;1721951;80;21086;-64
2022/10/29 01:02:30;;;;;;;18.80;13.35;;;;;;;12.81;68.22;101216.11;1721243;80;21051;-64
2022/10/29 01:04:56;;;;;;;17.65;13.08;;;;;;;12.75;68.28;101214.42;1739490;80;21869;-64
2022/10/29 01:07:24;;;;;;;19.37;12.50;;;;;;;12.72;68.29;101211.52;1722287;80;21090;-64
2022/10/29 01:09:51;;;;;;;20.90;12.63;;;;;;;12.70;68.31;101217.89;1701742;83;22101;-64
2022/10/29 01:12:46;;;;;;;16.10;12.58;;;;;;;12.70;68.31;101222.68;1670412;83;21059;-63
2022/10/29 01:15:24;;;;;;;18.67;14.65;;;;;;;12.71;68.35;101223.52;1709396;83;21492;-63
2022/10/29 01:18:09;;;;;;;19.82;13.58;;;;;;;12.64;68.40;101222.67;1778783;80;21090;-63
2022/10/29 01:21:17;;;;;;;16.35;12.50;;;;;;;12.59;68.46;101223.95;1747751;80;21047;-64
2022/10/29 01:24:13;;;;;;;16.75;13.35;;;;;;;12.53;68.55;101222.63;1741471;80;21316;-64
2022/10/29 01:26:51;;;;;;;17.57;12.73;;;;;;;12.43;68.70;101229.07;1720056;83;21338;-64
2022/10/29 01:29:50;;;;;;;17.30;13.62;;;;;;;12.36;68.76;101227.85;1704283;82;21540;-64
2022/10/29 01:32:35;;;;;;;18.20;13.08;;;;;;;12.36;68.79;101229.17;1686737;85;21025;-63
2022/10/29 01:35:23;;;;;;;18.20;14.53;;;;;;;12.33;68.89;101227.24;1739345;80;21563;-63
2022/10/29 01:38:23;;;;;;;20.57;14.13;;;;;;;12.28;69.08;101226.25;1687735;84;22105;-64
2022/10/29 01:41:01;;;;;;;17.57;13.48;;;;;;;12.21;69.20;101223.22;1748119;80;21097;-65
2022/10/29 01:43:38;;;;;;;19.10;14.47;;;;;;;12.15;69.41;101224.98;1747726;81;21113;-62
2022/10/29 01:46:15;;;;;;;19.00;12.50;;;;;;;12.11;69.46;101217.43;1737712;82;21034;-63
2022/10/29 01:48:46;;;;;;;16.05;13.75;;;;;;;12.10;69.40;101210.45;1745962;80;21610;-64
2022/10/29 01:51:19;;;;;;;18.20;12.90;;;;;;;12.10;69.46;101214.41;1731843;80;21107;-64
2022/10/29 01:53:46;;;;;;;21.52;14.20;;;;;;;12.05;69.56;101208.15;1757213;80;21027;-64
2022/10/29 01:56:12;;;;;;;20.40;14.58;;;;;;;12.01;69.68;101205.38;1712095;83;21062;-64
2022/10/29 01:58:40;;;;;;;22.30;14.03;;;;;;;11.97;69.81;101215.32;1687234;83;21039;-63
2022/10/29 02:01:42;;;;;;;19.73;13.45;;;;;;;11.95;69.85;101216.37;1686908;85;21031;-63
2022/10/29 02:04:42;;;;;;;21.33;14.28;;;;;;;11.97;69.79;101208.73;1682645;83;21281;-63
2022/10/29 02:07:49;;;;;;;15.40;12.25;;;;;;;11.97;69.79;101211.81;1672167;84;21066;-63
2022/10/29 02:10:46;;;;;;;21.52;14.25;;;;;;;11.90;69.93;101211.39;1680531;85;21088;-64
2022/10/29 02:13:13;;;;;;;16.97;13.43;;;;;;;11.81;70.13;101204.99;1705683;82;21067;-64
2022/10/29 02:15:48;;;;;;;18.57;13.32;;;;;;;11.75;70.36;101199.31;1665845;83;21134;-63
2022/10/29 02:18:15;;;;;;;16.52;12.82;;;;;;;11.71;70.29;101192.11;1722346;82;21173;-63
2022/10/29 02:20:43;;;;;;;16.27;11.83;;;;;;;11.70;70.26;101188.64;1735597;80;21039;-62
2022/10/29 02:23:10;;;;;;;17.55;12.07;;;;;;;11.74;70.43;101185.78;1697814;82;21071;-62
2022/10/29 02:25:38;;;;;;;16.02;12.60;;;;;;;11.76;70.52;101186.02;1666807;83;21540;-63
2022/10/29 02:28:05;;;;;;;17.02;13.18;;;;;;;11.77;70.58;101188.17;1718020;83;21032;-63
2022/10/29 02:30:32;;;;;;;17.62;13.18;;;;;;;11.73;70.58;101189.36;1722861;80;21253;-64
2022/10/29 02:32:58;;;;;;;19.87;13.05;;;;;;;11.69;70.64;101185.63;1718233;82;21055;-64
2022/10/29 02:35:25;;;;;;;15.98;12.68;;;;;;;11.67;70.67;101180.11;1730559;80;21066;-63
2022/10/29 02:37:51;;;;;;;17.40;13.48;;;;;;;11.67;70.65;101182.27;1732361;82;21050;-63
2022/10/29 02:40:18;;;;;;;16.75;12.07;;;;;;;11.73;70.48;101178.82;1733282;80;21513;-63
2022/10/29 02:42:44;;;;;;;18.65;13.13;;;;;;;11.76;70.44;101182.07;1731799;82;22207;-64
2022/10/29 02:45:12;;;;;;;20.43;13.13;;;;;;;11.77;70.41;101181.12;1736779;80;21046;-64
2022/10/29 02:47:39;;;;;;;16.05;11.93;;;;;;;11.75;70.40;101177.77;1728415;80;21079;-63
2022/10/29 02:50:08;;;;;;;17.92;13.60;;;;;;;11.73;70.39;101188.05;1715299;82;21527;-63
2022/10/29 02:52:34;;;;;;;16.82;12.78;;;;;;;11.66;70.35;101184.52;1700081;83;21687;-64
2022/10/29 02:55:04;;;;;;;17.57;11.97;;;;;;;11.61;70.38;101183.18;1690275;83;22298;-63
2022/10/29 02:57:31;;;;;;;16.40;12.60;;;;;;;11.60;70.39;101179.71;1746787;80;21124;-63
2022/10/29 02:59:58;;;;;;;16.75;12.37;;;;;;;11.62;70.45;101176.48;1761843;80;21035;-63
2022/10/29 03:02:24;;;;;;;18.80;12.30;;;;;;;11.61;70.48;101177.42;1756153;80;21032;-63
2022/10/29 03:04:51;;;;;;;16.12;13.25;;;;;;;11.59;70.57;101172.75;1756022;79;20991;-63
2022/10/29 03:07:17;;;;;;;17.60;12.40;;;;;;;11.53;70.59;101167.91;1749073;80;21223;-63
2022/10/29 03:09:45;;;;;;;19.75;13.53;;;;;;;11.48;70.64;101172.20;1747986;80;20980;-64
2022/10/29 03:12:11;;;;;;;20.70;14.58;;;;;;;11.43;70.69;101165.11;1746683;80;21029;-63
2022/10/29 03:14:38;;;;;;;16.62;12.53;;;;;;;11.41;70.65;101158.25;1747952;80;21190;-63
2022/10/29 03:17:05;;;;;;;19.75;13.55;;;;;;;11.42;70.60;101161.26;1761607;80;21003;-64
2022/10/29 03:19:32;;;;;;;14.80;12.80;;;;;;;11.41;70.59;101164.34;1748022;80;21253;-64
2022/10/29 03:21:59;;;;;;;18.87;13.32;;;;;;;11.40;70.64;101157.41;1754934;80;21118;-64
2022/10/29 03:24:25;;;;;;;15.95;13.00;;;;;;;11.38;70.68;101161.95;1742568;80;21090;-64
2022/10/29 03:26:52;;;;;;;17.32;14.33;;;;;;;11.33;70.73;101168.00;1744797;80;21516;-63
2022/10/29 03:29:19;;;;;;;17.92;13.00;;;;;;;11.27;70.84;101171.92;1750547;80;21702;-64
2022/10/29 03:31:45;;;;;;;19.45;14.18;;;;;;;11.21;70.85;101160.48;1743090;81;21997;-64
2022/10/29 03:34:12;;;;;;;17.50;14.00;;;;;;;11.23;70.84;101165.20;1747177;80;21671;-63
2022/10/29 03:36:38;;;;;;;16.10;13.10;;;;;;;11.25;70.87;101149.28;1772096;80;21600;-63
2022/10/29 03:39:05;;;;;;;18.50;14.43;;;;;;;11.23;70.75;101146.76;1744545;80;21601;-64
2022/10/29 03:41:31;;;;;;;17.30;14.28;;;;;;;11.18;70.96;101145.37;1773872;80;21090;-63
2022/10/29 03:43:58;;;;;;;17.32;14.65;;;;;;;11.15;71.08;101138.55;1756412;80;21268;-64
2022/10/29 03:46:24;;;;;;;17.20;14.13;;;;;;;11.10;71.04;101140.18;1743069;80;21112;-63
2022/10/29 03:48:51;;;;;;;19.57;14.45;;;;;;;11.03;71.13;101133.67;1742716;80;21072;-63
2022/10/29 03:51:17;;;;;;;21.80;14.10;;;;;;;10.99;71.15;101130.86;1755048;80;21098;-63
2022/10/29 03:53:44;;;;;;;19.40;13.35;;;;;;;10.99;71.03;101124.28;1749403;80;20993;-63
2022/10/29 03:56:10;;;;;;;17.55;13.58;;;;;;;11.00;71.09;101125.14;1754415;80;21257;-64
2022/10/29 03:58:39;;;;;;;21.17;15.50;;;;;;;10.99;71.20;101126.08;1750850;80;21072;-64
2022/10/29 04:01:07;;;;;;;17.85;15.95;;;;;;;10.95;71.31;101127.61;1763759;80;21043;-64
2022/10/29 04:03:37;;;;;;;19.25;15.48;;;;;;;10.90;71.42;101127.57;1757880;80;21484;-63
2022/10/29 04:06:12;;;;;;;22.13;15.48;;;;;;;10.85;71.50;101125.73;1768491;80;21047;-63
2022/10/29 04:08:40;;;;;;;16.80;13.62;;;;;;;10.82;71.51;101131.20;1755800;80;21023;-63
2022/10/29 04:11:11;;;;;;;19.30;14.98;;;;;;;10.83;71.45;101137.69;1755505;80;21003;-63
2022/10/29 04:13:39;;;;;;;17.73;14.40;;;;;;;10.83;71.47;101128.47;1779225;80;21082;-63
2022/10/29 04:16:07;;;;;;;21.02;14.07;;;;;;;10.81;71.60;101117.21;1762837;80;21098;-63
2022/10/29 04:18:33;;;;;;;19.65;14.90;;;;;;;10.79;71.72;101105.92;1767580;80;21032;-64
2022/10/29 04:21:02;;;;;;;17.12;14.18;;;;;;;10.75;71.75;101101.34;1768533;80;21015;-63
2022/10/29 04:23:28;;;;;;;25.35;14.45;;;;;;;10.68;71.51;101101.89;1757859;80;21508;-63
2022/10/29 04:25:57;;;;;;;19.95;15.70;;;;;;;10.60;71.42;101100.61;1768629;80;21055;-64
2022/10/29 04:28:24;;;;;;;21.17;15.45;;;;;;;10.57;71.46;101103.48;1759673;80;21093;-64
2022/10/29 04:30:51;;;;;;;18.52;14.50;;;;;;;10.57;71.74;101111.37;1761144;80;21078;-64
2022/10/29 04:33:18;;;;;;;20.25;16.00;;;;;;;10.52;71.96;101110.84;1750354;82;21214;-63
2022/10/29 04:35:52;;;;;;;21.05;16.50;;;;;;;10.47;72.21;101106.83;1758771;80;21081;-63
2022/10/29 04:38:18;;;;;;;21.80;15.83;;;;;;;10.43;72.38;101111.45;1750560;82;21567;-63
2022/10/29 04:40:45;;;;;;;21.52;14.55;;;;;;;10.40;72.46;101107.23;1751265;80;21576;-63
2022/10/29 04:43:12;;;;;;;23.87;15.08;;;;;;;10.44;72.45;101110.53;1750568;82;21091;-63
2022/10/29 04:45:39;;;;;;;19.90;16.12;;;;;;;10.47;72.42;101118.19;1757202;80;21257;-63
2022/10/29 04:48:06;;;;;;;19.65;15.38;;;;;;;10.49;72.43;101116.77;1767315;80;21038;-64
2022/10/29 04:50:36;;;;;;;17.73;14.98;;;;;;;10.47;72.45;101120.81;1773102;80;21476;-63
2022/10/29 04:53:04;;;;;;;19.70;15.08;;;;;;;10.39;72.25;101107.36;1700422;82;21063;-63
2022/10/29 04:55:31;;;;;;;18.62;14.10;;;;;;;10.30;72.18;101111.41;1761791;80;21708;-64
2022/10/29 04:57:58;;;;;;;26.33;16.07;;;;;;;10.25;72.06;101108.23;1775407;80;21575;-66
2022/10/29 05:00:24;;;;;;;21.25;16.42;;;;;;;10.25;72.03;101106.09;1768831;80;21034;-63
2022/10/29 05:02:51;;;;;;;19.65;16.05;;;;;;;10.27;72.29;101109.45;1767158;80;21036;-63
2022/10/29 05:05:20;;;;;;;23.07;16.95;;;;;;;10.27;72.51;101113.40;1768186;80;21031;-63
2022/10/29 05:07:48;;;;;;;20.30;15.40;;;;;;;10.25;72.71;101108.23;1768675;80;21078;-64
2022/10/29 05:10:14;;;;;;;21.33;15.30;;;;;;;10.21;72.71;101113.34;1759749;80;21235;-63
2022/10/29 05:12:42;;;;;;;23.22;15.58;;;;;;;10.20;72.70;101112.52;1751539;80;21035;-64
2022/10/29 05:15:10;;;;;;;22.45;15.78;;;;;;;10.22;72.58;101117.64;1766232;80;21011;-64
2022/10/29 05:17:39;;;;;;;20.62;16.48;;;;;;;10.26;72.72;101119.62;1781492;80;21034;-64
2022/10/29 05:20:08;;;;;;;22.00;16.00;;;;;;;10.30;72.90;101125.03;1774821;80;21307;-64
2022/10/29 05:22:34;;;;;;;21.65;16.70;;;;;;;10.30;72.98;101126.34;1714115;83;21818;-63
2022/10/29 05:25:01;;;;;;;26.55;19.00;;;;;;;10.31;73.15;101115.73;1756126;80;22316;-63
2022/10/29 05:27:28;;;;;;;23.83;15.45;;;;;;;10.29;72.99;101111.50;1769373;80;21097;-63
2022/10/29 05:29:54;;;;;;;23.50;15.68;;;;;;;10.27;72.86;101105.06;1754656;80;21086;-63
2022/10/29 05:32:21;;;;;;;23.18;16.65;;;;;;;10.30;72.58;101094.78;1780245;80;21093;-63
2022/10/29 05:34:47;;;;;;;20.32;15.85;;;;;;;10.31;72.57;101088.59;1769990;80;21142;-63
2022/10/29 05:37:14;;;;;;;19.20;16.25;;;;;;;10.26;72.69;101084.12;1750487;82;21069;-63
2022/10/29 05:39:40;;;;;;;21.80;16.73;;;;;;;10.24;72.91;101077.64;1759844;80;21011;-63
2022/10/29 05:42:07;;;;;;;20.27;14.80;;;;;;;10.29;73.27;101080.80;1750524;80;21030;-63
2022/10/29 05:44:35;;;;;;;21.27;16.15;;;;;;;10.35;73.34;101084.83;1751657;80;21086;-63
2022/10/29 05:47:02;;;;;;;19.92;15.40;;;;;;;10.44;73.24;101082.03;1750685;80;21910;-63
2022/10/29 05:49:28;;;;;;;20.88;16.02;;;;;;;10.53;73.22;101086.69;1769678;80;21496;-62
2022/10/29 05:51:55;;;;;;;20.88;16.50;;;;;;;10.61;73.15;101089.63;1778279;80;21003;-63
2022/10/29 05:54:21;;;;;;;22.60;16.35;;;;;;;10.67;73.06;101093.62;1752276;80;21007;-63
2022/10/29 05:56:49;;;;;;;29.02;16.45;;;;;;;10.68;73.02;101092.69;1742471;81;21046;-63
2022/10/29 05:59:16;;;;;;;21.07;15.40;;;;;;;10.67;73.02;101095.77;1743248;80;21246;-63
2022/10/29 06:01:43;;;;;;;18.67;14.70;;;;;;;10.72;72.89;101095.45;1743784;80;21047;-63
2022/10/29 06:04:09;;;;;;;20.85;14.78;;;;;;;10.80;72.68;101093.14;1743299;80;21035;-63
2022/10/29 06:06:38;;;;;;;20.00;16.02;;;;;;;10.88;72.50;101093.94;1742781;80;21678;-63
2022/10/29 06:10:02;;;;;;;21.33;16.00;;;;;;;10.85;72.97;101093.66;1788851;78;22644;-60
2022/10/29 06:12:32;;;;;;;23.02;15.30;;;;;;;11.02;72.38;101098.22;1796803;78;21120;-61
2022/10/29 06:14:59;;;;;;;19.52;15.00;;;;;;;11.08;72.22;101092.53;1797023;78;21561;-61
2022/10/29 06:17:26;;;;;;;20.02;14.83;;;;;;;11.13;72.10;101089.09;1783957;80;21561;-60
2022/10/29 06:19:52;;;;;;;19.42;14.03;;;;;;;11.23;71.90;101084.84;1783297;78;21051;-60
2022/10/29 06:22:20;;;;;;;23.30;16.67;;;;;;;11.34;71.61;101084.06;1775661;80;21014;-60
2022/10/29 06:24:46;;;;;;;21.35;16.20;;;;;;;11.40;71.53;101082.77;1800721;78;20975;-61
2022/10/29 06:27:14;;;;;;;20.15;14.87;;;;;;;11.45;71.27;101086.77;1791734;78;21223;-61
2022/10/29 06:29:42;;;;;;;20.30;15.58;;;;;;;11.50;71.07;101078.54;1805638;78;20982;-60
2022/10/29 06:32:08;;;;;;;21.85;15.58;;;;;;;11.54;70.78;101083.94;1818368;78;21046;-61
2022/10/29 06:34:34;;;;;;;19.95;14.40;;;;;;;11.67;70.58;101091.31;1820402;78;21101;-61
2022/10/29 06:37:02;;;;;;;20.68;15.48;;;;;;;11.79;70.47;101091.37;1811811;78;21067;-61
2022/10/29 06:39:29;;;;;;;22.48;15.38;;;;;;;11.88;70.33;101084.08;1738338;81;21196;-61
2022/10/29 06:41:57;;;;;;;21.60;14.47;;;;;;;11.95;69.95;101083.18;1706405;82;21023;-60
2022/10/29 06:44:24;;;;;;;21.55;14.45;;;;;;;11.99;69.58;101076.73;1720937;82;21105;-61
2022/10/29 06:46:52;;;;;;;20.82;14.65;;;;;;;12.03;69.50;101071.58;1723294;82;21113;-61
2022/10/29 06:49:19;;;;;;;20.70;14.83;;;;;;;12.15;69.35;101067.17;1711285;83;21038;-60
2022/10/29 06:51:46;;;;;;;22.00;14.25;;;;;;;12.28;69.16;101071.88;1720557;81;21227;-60
2022/10/29 06:54:14;;;;;;;21.37;15.63;;;;;;;12.36;68.62;101078.74;1716793;81;21726;-61
2022/10/29 06:56:42;;;;;;;21.82;14.45;;;;;;;12.43;68.71;101083.91;1701959;81;21140;-60
2022/10/29 06:59:08;;;;;;;18.67;14.25;;;;;;;12.53;68.35;101077.93;1698867;83;21046;-60
2022/10/29 07:01:35;;;;;;;20.80;13.38;;;;;;;12.60;68.19;101064.12;1722982;83;21669;-61
2022/10/29 07:04:02;;;;;;;19.85;13.70;;;;;;;12.72;67.67;101061.48;1711955;81;21145;-60
2022/10/29 07:06:31;;;;;;;21.25;14.40;;;;;;;12.79;67.38;101055.62;1759583;81;21445;-60
2022/10/29 07:08:59;;;;;;;25.02;14.55;;;;;;;12.81;67.17;101047.09;1731934;81;21130;-60
2022/10/29 07:11:26;;;;;;;19.85;14.03;;;;;;;12.82;67.13;101048.75;1659860;85;21090;-60
2022/10/29 07:13:53;;;;;;;17.95;14.05;;;;;;;12.86;67.24;101039.27;1671385;83;21570;-60
2022/10/29 07:16:20;;;;;;;20.15;14.30;;;;;;;12.92;67.40;101031.70;1684965;83;22065;-61
2022/10/29 07:18:48;;;;;;;15.58;11.57;;;;;;;13.00;67.15;101028.45;1693306;83;21108;-60
2022/10/29 07:21:15;;;;;;;16.85;13.03;;;;;;;13.15;66.97;101033.00;1678984;84;21202;-58
2022/10/29 07:23:41;;;;;;;17.90;12.78;;;;;;;13.25;66.38;101027.81;1731759;80;21058;-60
2022/10/29 07:26:08;;;;;;;16.82;13.43;;;;;;;13.25;66.02;101018.56;1730985;80;21118;-60
2022/10/29 07:28:34;;;;;;;19.05;14.10;;;;;;;13.25;66.00;101008.82;1728359;81;21232;-60
2022/10/29 07:31:01;;;;;;;16.57;12.60;;;;;;;13.27;65.96;101000.28;1739897;80;21098;-60
2022/10/29 07:33:31;;;;;;;21.97;12.98;;;;;;;13.30;65.98;101000.52;1718914;83;21069;-60
2022/10/29 07:35:58;;;;;;;17.17;11.90;;;;;;;13.36;66.00;101004.00;1729037;80;21016;-61
2022/10/29 07:38:25;;;;;;;17.77;11.55;;;;;;;13.44;65.61;101005.53;1725999;82;21136;-60
2022/10/29 07:40:52;;;;;;;21.55;13.35;;;;;;;13.51;65.59;101014.62;1744557;80;21120;-61
2022/10/29 07:43:19;;;;;;;17.60;13.55;;;;;;;13.54;65.63;101018.34;1729012;80;21525;-62
2022/10/29 07:45:49;;;;;;;18.15;12.93;;;;;;;13.55;65.35;101019.20;1740545;80;21063;-61
2022/10/29 07:48:15;;;;;;;18.02;13.48;;;;;;;13.53;65.17;101014.50;1729727;82;21218;-60
2022/10/29 07:50:43;;;;;;;20.37;14.07;;;;;;;13.51;65.37;101017.27;1763370;80;21549;-60
2022/10/29 07:53:10;;;;;;;19.50;12.68;;;;;;;13.53;65.37;101007.44;1745425;82;21224;-59
2022/10/29 07:55:37;;;;;;;18.05;12.60;;;;;;;13.63;65.09;101006.66;1746090;80;21054;-60
2022/10/29 07:58:06;;;;;;;15.65;12.10;;;;;;;13.69;65.19;100999.55;1744312;82;21046;-63
2022/10/29 08:00:35;;;;;;;18.52;12.73;;;;;;;13.74;65.27;101000.00;1765445;80;21490;-62
2022/10/29 08:03:02;;;;;;;17.57;12.55;;;;;;;13.78;65.13;101007.19;1748354;80;21035;-63
2022/10/29 08:05:29;;;;;;;22.30;12.65;;;;;;;13.80;65.25;101013.18;1768184;80;21135;-62
2022/10/29 08:07:58;;;;;;;16.80;12.07;;;;;;;13.81;65.09;101015.70;1751638;80;21054;-61
2022/10/29 08:10:25;;;;;;;15.65;11.45;;;;;;;13.86;65.00;101017.47;1763004;80;21102;-63
2022/10/29 08:12:54;;;;;;;18.52;12.23;;;;;;;13.94;64.97;101012.87;1777551;80;21062;-63
2022/10/29 08:15:23;;;;;;;17.20;12.93;;;;;;;14.01;64.95;101011.88;1763238;79;21022;-62
2022/10/29 08:17:49;;;;;;;19.15;12.33;;;;;;;14.08;64.89;101015.17;1778553;78;21231;-63
2022/10/29 08:20:16;;;;;;;17.40;12.80;;;;;;;14.15;64.99;101008.05;1777981;80;20976;-62
2022/10/29 08:22:43;;;;;;;19.10;13.68;;;;;;;14.19;64.81;101013.42;1776459;79;21077;-63
2022/10/29 08:25:09;;;;;;;15.50;11.40;;;;;;;14.22;64.89;101008.73;1775676;79;21541;-64
2022/10/29 08:27:37;;;;;;;17.40;12.50;;;;;;;14.26;65.01;101005.33;1774093;80;21534;-63
2022/10/29 08:30:05;;;;;;;15.35;12.15;;;;;;;14.39;64.87;101007.27;1780682;78;21232;-65
2022/10/29 08:32:34;;;;;;;20.75;11.53;;;;;;;14.50;64.81;101006.34;1778767;80;21019;-63
2022/10/29 08:35:02;;;;;;;16.42;11.28;;;;;;;14.57;64.60;100993.40;1769303;78;21032;-60
2022/10/29 08:37:30;;;;;;;16.17;12.20;;;;;;;14.61;64.34;101003.63;1772191;80;20972;-63
2022/10/29 08:39:57;;;;;;;18.95;11.63;;;;;;;14.63;64.04;100999.03;1772250;78;21021;-63
2022/10/29 08:42:41;;;;;;;17.37;11.60;;;;;;;14.66;64.24;101005.88;1770704;80;21200;-63
2022/10/29 08:45:24;;;;;;;17.85;12.60;;;;;;;14.71;64.02;101004.13;1769091;80;21051;-63
2022/10/29 08:48:39;;;;;;;16.82;12.03;;;;;;;14.85;64.11;101006.42;1774977;78;21481;-62
2022/10/29 08:51:37;;;;;;;16.20;11.65;;;;;;;15.09;63.94;100995.44;1769895;79;21030;-61
2022/10/29 08:54:03;;;;;;;15.85;11.83;;;;;;;15.31;63.13;101001.47;1770825;79;21022;-62
2022/10/29 08:56:35;;;;;;;14.23;11.57;;;;;;;15.42;62.51;100990.23;1772813;80;21337;-61
2022/10/29 08:59:17;;;;;;;15.18;11.48;;;;;;;15.50;62.26;100984.72;1775062;79;21036;-64
2022/10/29 09:01:43;;;;;;;17.75;11.97;;;;;;;15.56;61.99;100978.36;1771634;80;21074;-63
2022/10/29 09:04:29;;;;;;;16.87;12.68;;;;;;;15.64;62.05;100971.03;1783831;80;21119;-64
2022/10/29 09:07:04;;;;;;;21.00;11.70;;;;;;;15.73;62.29;100960.88;1767532;80;21012;-61
2022/10/29 09:09:45;;;;;;;14.38;10.28;;;;;;;15.87;61.55;100949.51;1772173;78;21141;-63
2022/10/29 09:12:39;;;;;;;18.25;11.75;;;;;;;16.00;61.27;100946.05;1772983;80;21053;-62
2022/10/29 09:15:35;;;;;;;17.40;10.85;;;;;;;16.09;61.07;100950.51;1767318;79;21005;-62
2022/10/29 09:18:29;;;;;;;17.82;10.93;;;;;;;16.19;61.13;100957.59;1766149;80;21084;-62
2022/10/29 09:21:26;;;;;;;15.75;10.05;;;;;;;16.25;61.15;100951.70;1770136;80;21068;-64
2022/10/29 09:24:25;;;;;;;14.05;10.15;;;;;;;16.33;61.34;100942.52;1771683;80;21140;-64
2022/10/29 09:27:02;;;;;;;14.00;9.90;;;;;;;16.47;61.30;100937.20;1768899;79;21081;-62
2022/10/29 09:29:52;;;;;;;14.60;8.73;;;;;;;16.60;60.66;100934.20;1766780;80;21062;-59
2022/10/29 09:32:40;;;;;;;12.20;7.58;;;;;;;16.72;60.59;100938.31;1764450;80;21125;-59
2022/10/29 09:35:15;;;;;;;13.78;9.45;;;;;;;16.86;59.48;100932.53;1759966;80;21497;-61
2022/10/29 09:38:03;;;;;;;15.50;9.10;;;;;;;16.97;58.64;100937.29;1771028;80;21060;-64
2022/10/29 09:40:35;;;;;;;15.03;9.33;;;;;;;16.97;58.61;100931.97;1766978;80;21047;-62
2022/10/29 09:43:27;;;;;;;14.78;8.13;;;;;;;16.94;58.66;100920.30;1765413;79;21062;-62
2022/10/29 09:46:17;;;;;;;13.05;8.95;;;;;;;16.93;58.69;100919.95;1754153;80;21098;-63
2022/10/29 09:49:33;;;;;;;13.88;9.35;;;;;;;16.92;59.04;100910.33;1766151;80;21128;-61
2022/10/29 09:52:05;;;;;;;14.75;9.95;;;;;;;16.95;59.19;100902.88;1774463;79;21241;-61
2022/10/29 09:54:33;;;;;;;13.60;9.93;;;;;;;17.01;59.01;100897.44;1773011;80;21382;-62
2022/10/29 09:57:01;;;;;;;12.98;9.65;;;;;;;17.05;58.44;100905.47;1772206;80;21055;-63
2022/10/29 09:59:38;;;;;;;14.30;9.28;;;;;;;17.08;58.56;100896.69;1772224;79;21001;-61
2022/10/29 10:02:27;;;;;;;12.07;8.75;;;;;;;17.14;58.38;100889.91;1760680;80;21092;-62
2022/10/29 10:04:56;;;;;;;11.88;8.43;;;;;;;17.17;58.10;100882.13;1771858;80;21780;-63
2022/10/29 10:07:23;;;;;;;13.03;8.65;;;;;;;17.23;58.10;100875.70;1775177;79;21119;-63
2022/10/29 10:10:01;;;;;;;17.07;9.35;;;;;;;17.33;57.67;100876.95;1771927;80;21020;-63
2022/10/29 10:12:44;;;;;;;14.83;9.20;;;;;;;17.42;57.73;100874.67;1736264;80;21024;-63
2022/10/29 10:15:28;;;;;;;15.18;9.10;;;;;;;17.51;57.38;100862.25;1771413;80;21107;-62
2022/10/29 10:18:07;;;;;;;14.40;9.78;;;;;;;17.61;57.49;100860.31;1773415;79;21361;-62
2022/10/29 10:20:43;;;;;;;13.13;9.35;;;;;;;17.70;57.08;100851.05;1765315;80;21074;-63
2022/10/29 10:23:23;;;;;;;13.68;8.95;;;;;;;17.72;56.92;100844.59;1767025;80;21022;-63
2022/10/29 10:25:52;;;;;;;12.33;9.80;;;;;;;17.73;57.13;100848.08;1767784;79;21624;-62
2022/10/29 10:28:30;;;;;;;13.13;9.68;;;;;;;17.71;56.94;100842.09;1773294;80;21060;-62
2022/10/29 10:31:10;;;;;;;12.43;8.78;;;;;;;17.62;57.19;100839.38;1766286;80;21165;-63
2022/10/29 10:33:51;;;;;;;12.40;8.55;;;;;;;17.58;57.50;100837.19;1765148;79;21141;-63
2022/10/29 10:36:21;;;;;;;12.53;8.58;;;;;;;17.56;57.41;100821.38;1742652;79;21106;-63
2022/10/29 10:38:53;;;;;;;13.50;8.20;;;;;;;17.56;57.57;100830.69;1770164;80;21078;-63
2022/10/29 10:41:26;;;;;;;10.60;7.50;;;;;;;17.55;57.93;100820.20;1765903;79;21077;-62
2022/10/29 10:43:56;;;;;;;10.60;7.55;;;;;;;17.61;58.01;100807.10;1765920;80;21142;-60
2022/10/29 10:46:31;;;;;;;9.80;7.50;;;;;;;17.73;58.16;100793.52;1764417;80;21325;-62
2022/10/29 10:49:19;;;;;;;12.35;7.65;;;;;;;17.83;58.29;100781.74;1761184;80;21077;-62
2022/10/29 10:51:48;;;;;;;15.20;8.65;;;;;;;17.88;58.17;100779.97;1760937;79;21040;-59
2022/10/29 10:54:33;;;;;;;15.48;7.37;;;;;;;17.92;58.12;100767.17;1761901;80;21105;-62
2022/10/29 10:57:15;;;;;;;12.85;9.00;;;;;;;17.92;58.05;100749.39;1799237;79;21212;-61
2022/10/29 10:59:59;;;;;;;11.68;7.83;;;;;;;17.91;58.36;100730.91;1816960;79;21145;-64
2022/10/29 11:02:57;;;;;;;11.15;7.85;;;;;;;17.91;58.60;100745.55;1774420;79;20999;-61
2022/10/29 11:05:54;;;;;;;12.28;7.80;;;;;;;17.87;58.84;100750.38;1766370;80;21077;-63
2022/10/29 11:08:29;;;;;;;11.95;8.50;;;;;;;17.83;58.90;100760.45;1709835;82;21027;-61
2022/10/29 11:11:00;;;;;;;9.70;7.40;;;;;;;17.79;59.02;100763.62;1727604;82;21863;-62
2022/10/29 11:13:29;;;;;;;13.18;7.17;;;;;;;17.79;58.75;100756.45;1703409;83;21499;-62
2022/10/29 11:16:30;;;;;;;10.68;7.25;;;;;;;17.85;58.79;100745.65;1782425;80;20995;-61
2022/10/29 11:19:06;;;;;;;10.63;7.33;;;;;;;17.87;58.48;100735.73;1768178;79;21171;-64
2022/10/29 11:21:47;;;;;;;10.82;7.70;;;;;;;17.89;58.58;100731.07;1765595;79;21078;-61
2022/10/29 11:24:27;;;;;;;11.33;7.42;;;;;;;17.89;58.93;100729.74;1763324;79;21109;-63
2022/10/29 11:26:58;;;;;;;11.08;6.87;;;;;;;17.86;59.75;100731.36;1782241;79;21011;-61
2022/10/29 11:29:53;;;;;;;12.28;7.90;;;;;;;17.80;60.02;100718.69;1766684;80;21042;-63
2022/10/29 11:32:47;;;;;;;12.68;8.65;;;;;;;17.75;60.51;100719.20;1775782;80;21027;-61
2022/10/29 11:35:40;;;;;;;10.85;7.45;;;;;;;17.72;61.09;100725.31;1774097;80;20999;-63